createdAt,value
2023-04-26T00:01:17.351Z,85.36
2023-04-26T00:03:45.662Z,85.81
2023-04-26T00:06:12.709Z,85.64
2023-04-26T00:08:39.849Z,86.08
2023-04-26T00:11:06.653Z,85.32
2023-04-26T00:13:33.467Z,84.16
2023-04-26T00:16:00.371Z,84.18
2023-04-26T00:18:27.251Z,82.37
2023-04-26T00:20:55.576Z,87.14
2023-04-26T00:23:22.389Z,88.16
2023-04-26T00:25:49.173Z,90.65
2023-04-26T00:28:15.984Z,90.43
2023-04-26T00:30:42.820Z,88.74
2023-04-26T00:33:09.641Z,87.71
2023-04-26T00:35:37.640Z,87.19
2023-04-26T00:38:05.763Z,87.63
2023-04-26T00:40:32.514Z,86.72
2023-04-26T00:42:59.325Z,87.75
2023-04-26T00:45:26.414Z,88.46
2023-04-26T00:47:53.700Z,90.55
2023-04-26T00:50:20.807Z,90.83
2023-04-26T00:52:48.184Z,89.35
2023-04-26T00:55:17.101Z,88.32
2023-04-26T00:57:45.066Z,89.13
2023-04-26T01:00:12.679Z,87.88
2023-04-26T01:02:39.663Z,88.51
2023-04-26T01:05:06.962Z,89.07
2023-04-26T01:07:34.489Z,87.98
2023-04-26T01:10:01.324Z,85.80
2023-04-26T01:12:29.794Z,84.26
2023-04-26T01:14:57.046Z,86.77
2023-04-26T01:17:23.968Z,86.50
2023-04-26T01:19:50.721Z,86.05
2023-04-26T01:22:18.016Z,88.20
2023-04-26T01:24:50.084Z,88.72
2023-04-26T01:27:17.814Z,86.49
2023-04-26T01:29:44.573Z,84.06
2023-04-26T01:32:11.695Z,85.38
2023-04-26T01:34:38.458Z,84.29
2023-04-26T01:37:05.251Z,83.56
2023-04-26T01:39:32.009Z,84.07
2023-04-26T01:42:00.248Z,84.91
2023-04-26T01:44:27.002Z,83.08
2023-04-26T01:46:53.775Z,84.23
2023-04-26T01:49:20.546Z,84.42
2023-04-26T01:51:47.353Z,85.66
2023-04-26T01:54:14.147Z,86.77
2023-04-26T01:56:40.964Z,86.34
2023-04-26T01:59:09.155Z,83.84
2023-04-26T02:01:35.919Z,85.13
2023-04-26T02:04:02.810Z,83.66
2023-04-26T02:06:29.566Z,85.94
2023-04-26T02:08:56.590Z,85.40
2023-04-26T02:11:23.300Z,85.29
2023-04-26T02:13:50.062Z,83.79
2023-04-26T02:16:18.331Z,84.55
2023-04-26T02:18:45.258Z,84.13
2023-04-26T02:21:12.321Z,87.24
2023-04-26T02:23:39.100Z,87.53
2023-04-26T02:26:05.914Z,86.59
2023-04-26T02:28:32.756Z,87.14
2023-04-26T02:30:59.618Z,85.02
2023-04-26T02:33:27.821Z,88.29
2023-04-26T02:35:54.640Z,86.85
2023-04-26T02:38:21.488Z,88.43
2023-04-26T02:40:48.360Z,85.95
2023-04-26T02:43:15.148Z,84.83
2023-04-26T02:45:42.397Z,84.00
2023-04-26T02:48:09.218Z,85.12
2023-04-26T02:50:37.395Z,85.15
2023-04-26T02:53:04.135Z,83.51
2023-04-26T02:55:30.915Z,85.21
2023-04-26T02:57:57.804Z,85.90
2023-04-26T03:00:24.623Z,85.65
2023-04-26T03:02:51.608Z,83.40
2023-04-26T03:05:18.623Z,85.09
2023-04-26T03:07:46.822Z,85.03
2023-04-26T03:10:13.646Z,83.04
2023-04-26T03:12:40.437Z,84.36
2023-04-26T03:15:08.285Z,84.31
2023-04-26T03:17:35.196Z,85.17
2023-04-26T03:20:02.900Z,82.24
2023-04-26T03:22:29.857Z,83.79
2023-04-26T03:24:58.086Z,82.53
2023-04-26T03:27:24.855Z,82.85
2023-04-26T03:29:51.590Z,82.98
2023-04-26T03:32:18.524Z,84.26
2023-04-26T03:34:45.383Z,84.49
2023-04-26T03:37:12.102Z,85.24
2023-04-26T03:39:38.839Z,86.03
2023-04-26T03:42:07.053Z,84.66
2023-04-26T03:44:33.971Z,84.87
2023-04-26T03:47:00.816Z,84.92
2023-04-26T03:49:27.601Z,83.66
2023-04-26T03:51:54.333Z,84.48
2023-04-26T03:54:21.105Z,83.26
2023-04-26T03:56:47.849Z,84.41
2023-04-26T03:59:15.954Z,84.04
2023-04-26T04:01:43.066Z,86.96
2023-04-26T04:04:10.351Z,85.74
2023-04-26T04:06:37.189Z,83.97
2023-04-26T04:09:04.080Z,82.83
2023-04-26T04:11:31.046Z,85.68
2023-04-26T04:13:57.833Z,84.60
2023-04-26T04:16:26.196Z,84.06
2023-04-26T04:18:53.779Z,86.25
2023-04-26T04:21:20.852Z,86.96
2023-04-26T04:23:47.617Z,88.92
2023-04-26T04:26:14.420Z,88.19
2023-04-26T04:28:41.822Z,87.48
2023-04-26T04:31:08.701Z,87.75
2023-04-26T04:33:37.240Z,87.03
2023-04-26T04:36:04.441Z,86.33
2023-04-26T04:38:31.340Z,86.26
2023-04-26T04:40:58.075Z,85.57
2023-04-26T04:43:25.030Z,85.27
2023-04-26T04:45:51.833Z,85.16
2023-04-26T04:48:18.854Z,85.88
2023-04-26T04:50:47.010Z,83.34
2023-04-26T04:53:13.796Z,83.01
2023-04-26T04:55:40.626Z,83.92
2023-04-26T04:58:07.469Z,88.51
2023-04-26T05:00:34.346Z,89.95
2023-04-26T05:03:03.709Z,86.73
2023-04-26T05:05:31.231Z,86.08
2023-04-26T05:08:00.557Z,84.94
2023-04-26T05:10:27.500Z,85.57
2023-04-26T05:12:54.311Z,88.62
2023-04-26T05:15:21.205Z,87.96
2023-04-26T05:17:48.027Z,87.71
2023-04-26T05:20:15.139Z,89.47
2023-04-26T05:22:41.973Z,91.08
2023-04-26T05:25:10.674Z,91.41
2023-04-26T05:27:37.464Z,87.64
2023-04-26T05:30:05.176Z,86.63
2023-04-26T05:32:32.019Z,83.69
2023-04-26T05:34:58.833Z,84.93
2023-04-26T05:37:26.004Z,82.20
2023-04-26T05:39:52.848Z,81.96
2023-04-26T05:42:21.032Z,74.69
2023-04-26T05:44:47.801Z,69.95
2023-04-26T05:47:14.599Z,67.22
2023-04-26T05:49:41.484Z,65.02
2023-04-26T05:52:08.240Z,62.96
2023-04-26T05:54:34.993Z,59.90
2023-04-26T05:57:02.441Z,56.99
2023-04-26T05:59:30.690Z,56.85
2023-04-26T06:01:57.523Z,58.09
2023-04-26T06:04:24.529Z,57.57
2023-04-26T06:06:51.312Z,57.00
2023-04-26T06:09:20.139Z,53.82
2023-04-26T06:11:47.810Z,54.18
2023-04-26T06:14:29.247Z,54.98
2023-04-26T06:16:58.735Z,53.29
2023-04-26T06:19:26.236Z,55.66
2023-04-26T06:21:53.140Z,54.37
2023-04-26T06:24:20.153Z,55.74
2023-04-26T06:26:47.147Z,55.67
2023-04-26T06:29:13.935Z,55.93
2023-04-26T06:31:42.891Z,58.30
2023-04-26T06:34:11.498Z,63.27
2023-04-26T06:36:41.276Z,66.18
2023-04-26T06:39:12.142Z,67.26
2023-04-26T06:41:40.658Z,65.86
2023-04-26T06:44:07.628Z,62.43
2023-04-26T06:46:36.702Z,61.23
2023-04-26T06:49:04.107Z,62.96
2023-04-26T06:51:34.270Z,64.19
2023-04-26T06:54:08.449Z,66.05
2023-04-26T06:56:46.208Z,67.44
2023-04-26T06:59:17.369Z,69.76
2023-04-26T07:01:49.684Z,71.49
2023-04-26T07:04:16.807Z,73.12
2023-04-26T07:06:47.867Z,75.94
2023-04-26T07:09:15.464Z,75.23
2023-04-26T07:11:45.949Z,73.47
2023-04-26T07:14:20.987Z,70.74
2023-04-26T07:16:50.386Z,69.98
2023-04-26T07:19:18.216Z,69.31
2023-04-26T07:21:53.052Z,68.18
2023-04-26T07:24:23.407Z,67.57
2023-04-26T07:26:52.124Z,66.82
2023-04-26T07:29:23.576Z,66.53
2023-04-26T07:31:55.501Z,65.89
2023-04-26T07:34:25.522Z,63.83
2023-04-26T07:36:57.674Z,64.12
2023-04-26T07:39:27.830Z,64.77
2023-04-26T07:41:56.323Z,64.82
2023-04-26T07:44:25.491Z,64.00
2023-04-26T07:46:52.458Z,63.53
2023-04-26T07:49:19.252Z,60.21
2023-04-26T07:51:46.157Z,59.40
2023-04-26T07:54:16.510Z,57.98
2023-04-26T07:56:43.365Z,57.40
2023-04-26T07:59:10.156Z,56.26
2023-04-26T08:01:37.078Z,52.21
2023-04-26T08:04:04.497Z,55.51
2023-04-26T08:06:31.574Z,54.16
2023-04-26T08:08:58.419Z,52.42
2023-04-26T08:11:26.777Z,52.68
2023-04-26T08:13:55.061Z,51.47
2023-04-26T08:16:22.163Z,51.34
2023-04-26T08:18:48.899Z,51.68
2023-04-26T08:21:15.850Z,52.27
2023-04-26T08:23:42.633Z,52.55
2023-04-26T08:26:09.488Z,53.07
2023-04-26T08:28:37.728Z,53.84
2023-04-26T08:31:05.088Z,51.80
2023-04-26T08:33:32.035Z,49.52
2023-04-26T08:35:59.492Z,49.67
2023-04-26T08:38:26.293Z,46.77
2023-04-26T08:40:55.565Z,46.88
2023-04-26T08:43:23.023Z,43.58
2023-04-26T08:45:51.973Z,40.65
2023-04-26T08:48:19.666Z,40.89
2023-04-26T08:50:46.895Z,39.79
2023-04-26T08:53:15.033Z,38.73
2023-04-26T08:55:43.250Z,40.25
2023-04-26T08:58:12.375Z,39.52
2023-04-26T09:00:39.310Z,34.13
2023-04-26T09:03:08.345Z,34.20
2023-04-26T09:05:35.384Z,37.17
2023-04-26T09:08:04.814Z,38.60
2023-04-26T09:10:31.720Z,38.40
2023-04-26T09:12:58.610Z,35.96
2023-04-26T09:15:26.673Z,36.20
2023-04-26T09:17:54.125Z,32.78
2023-04-26T09:20:24.491Z,31.09
2023-04-26T09:22:52.529Z,32.17
2023-04-26T09:25:27.322Z,33.88
2023-04-26T09:27:54.310Z,36.69
2023-04-26T09:30:22.164Z,35.54
2023-04-26T09:32:52.081Z,34.37
2023-04-26T09:35:38.778Z,33.83
2023-04-26T09:38:12.148Z,34.38
2023-04-26T09:40:41.102Z,35.73
2023-04-26T09:43:09.507Z,33.92
2023-04-26T09:45:44.474Z,32.00
2023-04-26T09:48:16.405Z,34.28
2023-04-26T09:50:45.359Z,37.84
2023-04-26T09:53:24.446Z,37.30
2023-04-26T09:55:51.350Z,38.91
2023-04-26T09:58:18.179Z,35.35
2023-04-26T10:00:46.527Z,40.60
2023-04-26T10:03:14.519Z,36.13
2023-04-26T10:05:41.668Z,38.20
2023-04-26T10:08:10.408Z,40.25
2023-04-26T10:10:37.944Z,32.81
2023-04-26T10:13:06.280Z,33.87
2023-04-26T10:15:33.624Z,37.89
2023-04-26T10:18:00.462Z,37.19
2023-04-26T10:20:28.708Z,38.42
2023-04-26T10:22:58.754Z,34.04
2023-04-26T10:25:38.473Z,33.82
2023-04-26T10:28:06.267Z,38.89
2023-04-26T10:30:33.146Z,40.01
2023-04-26T10:33:15.131Z,38.32
2023-04-26T10:36:10.358Z,39.23
2023-04-26T10:38:41.642Z,35.00
2023-04-26T10:41:29.117Z,33.19
2023-04-26T10:43:56.141Z,32.58
2023-04-26T10:46:39.182Z,33.21
2023-04-26T10:49:16.440Z,37.95
2023-04-26T10:52:10.970Z,37.69
2023-04-26T10:54:48.295Z,34.18
2023-04-26T10:57:17.002Z,31.01
2023-04-26T11:00:25.526Z,33.88
2023-04-26T11:03:10.854Z,34.04
2023-04-26T11:05:56.888Z,34.32
2023-04-26T11:08:28.121Z,37.71
2023-04-26T11:11:05.064Z,34.11
2023-04-26T11:13:33.957Z,31.10
2023-04-26T11:16:02.106Z,32.84
2023-04-26T11:18:29.064Z,33.59
2023-04-26T11:20:55.842Z,33.85
2023-04-26T11:23:23.481Z,33.16
2023-04-26T11:25:50.328Z,34.36
2023-04-26T11:28:18.942Z,32.23
2023-04-26T11:30:48.622Z,32.74
2023-04-26T11:33:19.169Z,31.15
2023-04-26T11:35:46.938Z,31.63
2023-04-26T11:38:14.080Z,31.95
2023-04-26T11:40:41.438Z,30.71
2023-04-26T11:43:10.052Z,28.98
2023-04-26T11:45:38.400Z,31.78
2023-04-26T11:48:08.176Z,32.53
2023-04-26T11:50:36.743Z,32.81
2023-04-26T11:53:05.778Z,32.17
2023-04-26T11:55:33.742Z,29.14
2023-04-26T11:58:00.652Z,29.71
2023-04-26T12:00:27.984Z,28.46
2023-04-26T12:02:55.005Z,29.14
2023-04-26T12:05:25.013Z,28.34
2023-04-26T12:07:52.461Z,31.09
2023-04-26T12:10:21.368Z,30.91
2023-04-26T12:12:49.016Z,30.36
2023-04-26T12:15:15.863Z,30.14
2023-04-26T12:17:55.352Z,25.95
2023-04-26T12:20:35.640Z,27.00
2023-04-26T12:23:05.222Z,28.06
2023-04-26T12:25:32.992Z,29.05
2023-04-26T12:28:00.208Z,28.42
2023-04-26T12:30:28.696Z,27.47
2023-04-26T12:33:00.023Z,26.21
2023-04-26T12:35:30.221Z,27.62
2023-04-26T12:37:59.178Z,27.53
2023-04-26T12:40:26.709Z,26.91
2023-04-26T12:42:54.072Z,25.32
2023-04-26T12:45:20.846Z,26.32
2023-04-26T12:47:48.097Z,26.43
2023-04-26T12:50:17.955Z,24.21
2023-04-26T12:52:45.871Z,27.26
2023-04-26T12:55:15.822Z,25.64
2023-04-26T12:57:43.949Z,25.73
2023-04-26T13:00:12.500Z,26.02
2023-04-26T13:02:39.883Z,24.78
2023-04-26T13:05:07.938Z,28.62
2023-04-26T13:07:36.243Z,26.02
2023-04-26T13:10:04.043Z,27.09
2023-04-26T13:12:32.487Z,27.53
2023-04-26T13:14:59.329Z,24.63
2023-04-26T13:17:26.417Z,24.44
2023-04-26T13:19:53.899Z,25.29
2023-04-26T13:22:20.996Z,26.68
2023-04-26T13:24:47.830Z,27.26
2023-04-26T13:27:14.700Z,25.00
2023-04-26T13:29:43.534Z,25.64
2023-04-26T13:32:10.395Z,25.24
2023-04-26T13:34:37.156Z,26.43
2023-04-26T13:37:03.962Z,26.32
2023-04-26T13:39:31.183Z,24.58
2023-04-26T13:41:59.386Z,25.09
2023-04-26T13:44:26.458Z,25.47
2023-04-26T13:46:55.576Z,25.42
2023-04-26T13:49:24.056Z,27.72
2023-04-26T13:52:09.541Z,26.42
2023-04-26T13:54:56.674Z,25.52
2023-04-26T13:57:23.449Z,26.85
2023-04-26T13:59:50.216Z,25.46
2023-04-26T14:02:18.556Z,24.30
2023-04-26T14:04:45.578Z,25.63
2023-04-26T14:07:12.624Z,29.37
2023-04-26T14:09:39.404Z,26.62
2023-04-26T14:12:08.499Z,25.26
2023-04-26T14:14:35.853Z,26.42
2023-04-26T14:17:02.860Z,28.82
2023-04-26T14:19:31.027Z,27.85
2023-04-26T14:21:58.688Z,28.56
2023-04-26T14:24:25.588Z,29.03
2023-04-26T14:26:52.402Z,27.72
2023-04-26T14:29:19.155Z,28.49
2023-04-26T14:31:46.040Z,28.26
2023-04-26T14:34:12.840Z,28.65
2023-04-26T14:36:41.305Z,28.18
2023-04-26T14:39:08.096Z,28.61
2023-04-26T14:41:34.980Z,26.80
2023-04-26T14:44:02.112Z,26.39
2023-04-26T14:46:28.966Z,30.68
2023-04-26T14:48:56.085Z,28.17
2023-04-26T14:51:22.882Z,31.13
2023-04-26T14:53:51.546Z,30.55
2023-04-26T14:56:18.309Z,30.90
2023-04-26T14:58:45.073Z,31.04
2023-04-26T15:01:11.905Z,30.47
2023-04-26T15:03:38.788Z,29.92
2023-04-26T15:06:07.728Z,31.19
2023-04-26T15:08:34.542Z,30.57
2023-04-26T15:11:03.484Z,29.22
2023-04-26T15:13:32.497Z,30.15
2023-04-26T15:16:04.578Z,33.51
2023-04-26T15:18:32.955Z,33.16
2023-04-26T15:20:59.836Z,33.07
2023-04-26T15:23:26.596Z,30.39
2023-04-26T15:25:53.433Z,30.94
2023-04-26T15:28:21.551Z,31.63
2023-04-26T15:30:48.363Z,31.18
2023-04-26T15:33:16.969Z,29.86
2023-04-26T15:35:43.933Z,33.04
2023-04-26T15:38:10.800Z,33.05
2023-04-26T15:40:38.248Z,34.16
2023-04-26T15:43:05.146Z,33.88
2023-04-26T15:45:35.020Z,33.98
2023-04-26T15:48:01.836Z,34.20
2023-04-26T15:50:28.648Z,34.53
2023-04-26T15:52:55.434Z,35.72
2023-04-26T15:55:22.219Z,36.09
2023-04-26T15:57:49.099Z,35.58
2023-04-26T16:00:16.570Z,36.49
2023-04-26T16:02:45.126Z,36.89
2023-04-26T16:05:12.528Z,37.56
2023-04-26T16:07:39.512Z,37.08
2023-04-26T16:10:07.881Z,37.75
2023-04-26T16:12:34.702Z,37.77
2023-04-26T16:15:01.480Z,37.45
2023-04-26T16:17:28.254Z,38.61
2023-04-26T16:19:56.554Z,37.00
2023-04-26T16:22:23.348Z,37.16
2023-04-26T16:24:50.132Z,37.66
2023-04-26T16:27:16.917Z,38.00
2023-04-26T16:29:43.660Z,37.66
2023-04-26T16:32:10.485Z,36.88
2023-04-26T16:34:37.280Z,37.86
2023-04-26T16:37:05.434Z,38.83
2023-04-26T16:39:32.229Z,37.84
2023-04-26T16:41:59.078Z,38.51
2023-04-26T16:44:26.021Z,37.15
2023-04-26T16:46:53.080Z,37.66
2023-04-26T16:49:19.804Z,38.49
2023-04-26T16:51:46.611Z,40.06
2023-04-26T16:54:16.320Z,39.42
2023-04-26T16:56:43.344Z,39.18
2023-04-26T16:59:10.196Z,38.95
2023-04-26T17:01:37.003Z,39.12
2023-04-26T17:04:05.156Z,40.56
2023-04-26T17:06:32.153Z,39.41
2023-04-26T17:08:59.672Z,41.20
2023-04-26T17:11:28.073Z,39.96
2023-04-26T17:13:55.040Z,39.79
2023-04-26T17:16:22.551Z,40.77
2023-04-26T17:18:49.378Z,40.49
2023-04-26T17:21:16.111Z,40.66
2023-04-26T17:23:42.891Z,40.63
2023-04-26T17:26:09.696Z,41.55
2023-04-26T17:28:37.848Z,41.00
2023-04-26T17:31:04.886Z,40.73
2023-04-26T17:33:31.636Z,43.14
2023-04-26T17:35:58.779Z,42.70
2023-04-26T17:38:25.673Z,42.57
2023-04-26T17:40:53.206Z,43.34
2023-04-26T17:43:20.371Z,42.67
2023-04-26T17:45:48.750Z,44.63
2023-04-26T17:48:15.523Z,45.64
2023-04-26T17:50:43.393Z,46.17
2023-04-26T17:53:10.284Z,46.47
2023-04-26T17:55:37.353Z,46.81
2023-04-26T17:58:04.232Z,47.77
2023-04-26T18:00:30.991Z,47.01
2023-04-26T18:02:59.264Z,47.59
2023-04-26T18:05:26.395Z,49.67
2023-04-26T18:07:53.265Z,51.26
2023-04-26T18:10:20.076Z,51.22
2023-04-26T18:12:46.900Z,51.22
2023-04-26T18:15:13.871Z,53.49
2023-04-26T18:17:41.409Z,50.54
2023-04-26T18:20:10.733Z,50.68
2023-04-26T18:22:37.446Z,50.88
2023-04-26T18:25:04.994Z,49.97
2023-04-26T18:27:31.757Z,51.45
2023-04-26T18:29:58.962Z,52.37
2023-04-26T18:32:25.796Z,52.37
2023-04-26T18:34:52.593Z,50.28
2023-04-26T18:37:20.734Z,50.90
2023-04-26T18:39:47.571Z,48.73
2023-04-26T18:42:14.383Z,49.56
2023-04-26T18:44:41.201Z,49.01
2023-04-26T18:47:08.022Z,49.58
2023-04-26T18:49:34.867Z,48.88
2023-04-26T18:52:01.756Z,50.44
2023-04-26T18:54:29.905Z,50.43
2023-04-26T18:56:56.722Z,50.36
2023-04-26T18:59:23.455Z,51.35
2023-04-26T19:01:50.363Z,51.28
2023-04-26T19:04:17.297Z,51.12
2023-04-26T19:06:44.390Z,51.28
2023-04-26T19:09:11.318Z,51.77
2023-04-26T19:11:39.480Z,50.29
2023-04-26T19:14:06.284Z,52.77
2023-04-26T19:16:33.107Z,50.51
2023-04-26T19:18:59.953Z,52.62
2023-04-26T19:21:26.764Z,56.64
2023-04-26T19:23:53.547Z,53.94
2023-04-26T19:26:20.374Z,53.23
2023-04-26T19:28:48.656Z,54.24
2023-04-26T19:31:15.435Z,54.47
2023-04-26T19:33:42.212Z,51.67
2023-04-26T19:36:09.462Z,52.68
2023-04-26T19:38:36.224Z,55.70
2023-04-26T19:41:02.996Z,57.81
2023-04-26T19:43:29.840Z,56.49
2023-04-26T19:45:58.051Z,59.46
2023-04-26T19:48:24.827Z,64.01
2023-04-26T19:50:51.580Z,61.68
2023-04-26T19:53:18.438Z,57.64
2023-04-26T19:55:45.250Z,56.38
2023-04-26T19:58:12.058Z,55.89
2023-04-26T20:00:38.984Z,55.29
2023-04-26T20:03:07.567Z,57.10
2023-04-26T20:05:35.590Z,56.43
2023-04-26T20:08:02.483Z,57.29
2023-04-26T20:10:30.731Z,57.76
2023-04-26T20:12:57.635Z,60.12
2023-04-26T20:15:24.626Z,59.34
2023-04-26T20:17:51.363Z,58.37
2023-04-26T20:20:19.756Z,59.09
2023-04-26T20:22:46.764Z,62.36
2023-04-26T20:25:13.568Z,59.11
2023-04-26T20:27:40.365Z,61.42
2023-04-26T20:30:08.494Z,61.94
2023-04-26T20:32:35.261Z,63.23
2023-04-26T20:35:02.184Z,64.54
2023-04-26T20:37:30.380Z,61.37
2023-04-26T20:39:57.254Z,61.58
2023-04-26T20:42:24.450Z,63.55
2023-04-26T20:44:51.216Z,64.53
2023-04-26T20:47:18.042Z,63.00
2023-04-26T20:49:44.793Z,65.13
2023-04-26T20:52:11.567Z,65.48
2023-04-26T20:54:39.733Z,64.04
2023-04-26T20:57:06.545Z,62.64
2023-04-26T20:59:33.369Z,61.27
2023-04-26T21:02:00.227Z,61.78
2023-04-26T21:04:27.301Z,63.32
2023-04-26T21:06:54.259Z,62.95
2023-04-26T21:09:21.062Z,63.41
2023-04-26T21:11:49.277Z,65.01
2023-04-26T21:14:16.258Z,65.33
2023-04-26T21:16:43.146Z,64.84
2023-04-26T21:19:10.100Z,67.79
2023-04-26T21:21:37.175Z,72.53
2023-04-26T21:24:04.383Z,70.19
2023-04-26T21:26:31.234Z,73.68
2023-04-26T21:28:59.496Z,74.74
2023-04-26T21:31:26.573Z,75.12
2023-04-26T21:33:53.446Z,73.08
2023-04-26T21:36:20.279Z,73.05
2023-04-26T21:38:47.283Z,72.52
2023-04-26T21:41:14.128Z,75.32
2023-04-26T21:43:40.976Z,75.31
2023-04-26T21:46:09.364Z,75.71
2023-04-26T21:48:36.104Z,74.31
2023-04-26T21:51:03.000Z,73.06
2023-04-26T21:53:29.782Z,73.92
2023-04-26T21:55:56.582Z,74.26
2023-04-26T21:58:23.435Z,73.58
2023-04-26T22:00:50.885Z,76.37
2023-04-26T22:03:19.432Z,71.63
2023-04-26T22:05:46.462Z,73.63
2023-04-26T22:08:13.649Z,81.85
2023-04-26T22:10:40.583Z,75.45
2023-04-26T22:13:07.345Z,79.55
2023-04-26T22:15:34.086Z,80.03
2023-04-26T22:18:00.911Z,81.06
2023-04-26T22:20:29.188Z,73.29
2023-04-26T22:22:56.009Z,77.56
2023-04-26T22:25:23.107Z,78.88
2023-04-26T22:27:49.894Z,79.21
2023-04-26T22:30:25.505Z,74.62
2023-04-26T22:32:55.059Z,74.54
2023-04-26T22:35:22.630Z,77.21
2023-04-26T22:37:51.252Z,76.88
2023-04-26T22:40:18.202Z,75.16
2023-04-26T22:42:45.130Z,77.22
2023-04-26T22:45:12.442Z,78.24
2023-04-26T22:47:39.381Z,77.45
2023-04-26T22:50:07.832Z,80.87
2023-04-26T22:52:35.268Z,83.58
2023-04-26T22:55:03.524Z,84.68
2023-04-26T22:57:30.533Z,80.02
2023-04-26T22:59:57.336Z,80.27
2023-04-26T23:02:24.253Z,80.11
2023-04-26T23:04:51.071Z,80.21
2023-04-26T23:07:17.915Z,79.46
2023-04-26T23:09:44.832Z,79.00
2023-04-26T23:12:17.136Z,79.84
2023-04-26T23:14:43.952Z,81.10
2023-04-26T23:17:10.863Z,82.89
2023-04-26T23:19:37.694Z,81.44
2023-04-26T23:22:04.470Z,80.16
2023-04-26T23:24:31.237Z,81.37
2023-04-26T23:26:58.007Z,81.51
2023-04-26T23:29:26.182Z,81.81
2023-04-26T23:31:52.943Z,82.54
2023-04-26T23:34:19.795Z,82.23
2023-04-26T23:36:46.548Z,82.82
2023-04-26T23:39:13.571Z,82.61
2023-04-26T23:41:40.724Z,83.33
2023-04-26T23:44:07.456Z,84.33
2023-04-26T23:46:35.704Z,84.89
2023-04-26T23:49:02.594Z,85.40
2023-04-26T23:51:29.547Z,85.08
2023-04-26T23:53:56.302Z,86.49
2023-04-26T23:56:23.016Z,85.29
2023-04-26T23:58:49.906Z,83.62
